Impacts METAR Board
IDs:

KSAT - San Antonio Intl, TX, US

Updated at: 1200 UTC 16 Jul 2019
Potential Impact None Slight Moderate High
Time 16/00Z 16/01Z 16/02Z 16/03Z 16/04Z 16/05Z 16/06Z 16/07Z 16/08Z 16/09Z 16/10Z 16/11Z 16/12Z
Temp93 92 89 87 85 83 81 80 78 78 79 79 79
Dewpt70 69 70 73 73 73 73 72 72 73 73 73 73
Altim29.87 29.88 29.89 29.91 29.93 29.95 29.96 29.96 29.97 29.97 29.98 30.00 30.00
VIS10 10 10 10 10 10 10 10 10 10 10 10 10
CIG250 -- -- -- -- -- -- -- -- 14 12 16 18
CoverBKNSCTFEWFEWFEWFEWFEWFEWFEWOVCOVCOVCBKN
FltCatVFRVFRVFRVFRVFRVFRVFRVFRVFRMVFRMVFRMVFRMVFR
WX--------------------------
WDir140160130150150150150160130160150170160
WSpd11 8 11 11 14 13 11 11 7 9 9 9 10
WGst16 -- -- -- 21 18 -- -- -- -- -- -- --
Raw hourly METARs
KSAT 152351Z 14011G16KT 10SM FEW055 SCT140 BKN250 34/21 A2987 RMK AO2 SLP096 T03390211 10350 20328 56012
KSAT 160051Z 16008KT 10SM FEW055 SCT250 33/21 A2988 RMK AO2 SLP097 T03330206
KSAT 160151Z 13011KT 10SM FEW150 FEW250 32/21 A2989 RMK AO2 SLP101 T03170211
KSAT 160251Z 15011KT 10SM FEW250 31/23 A2991 RMK AO2 SLP109 T03060228 53013
KSAT 160351Z 15014G21KT 10SM FEW250 29/23 A2993 RMK AO2 SLP117 T02940228
KSAT 160451Z 15013G18KT 10SM FEW250 28/23 A2995 RMK AO2 SLP122 T02830228
KSAT 160551Z 15011KT 10SM FEW250 27/23 A2996 RMK AO2 SLP126 T02720228 10344 20272 403500244 51018
KSAT 160651Z 16011KT 10SM FEW250 27/22 A2996 RMK AO2 SLP126 T02670222
KSAT 160751Z 13007KT 10SM FEW250 26/22 A2997 RMK AO2 SLP128 T02560222
KSAT 160900Z 16009KT 10SM OVC014 26/23 A2997 RMK AO2 T02560228
KSAT 160951Z 15009KT 10SM OVC012 26/23 A2998 RMK AO2 SLP132 T02610228
KSAT 161051Z 17009KT 10SM BKN016 OVC021 26/23 A3000 RMK AO2 SLP137 T02610228
KSAT 161151Z 16010KT 10SM BKN018 BKN250 26/23 A3000 RMK AO2 SLP139 T02610228 10272 20250 51010